createdAt,value
2018-07-01T00:00:05.875Z,980.60
2018-07-01T00:01:05.197Z,980.75
2018-07-01T00:02:05.371Z,980.72
2018-07-01T00:03:05.345Z,980.66
2018-07-01T00:04:05.231Z,980.69
2018-07-01T00:05:05.839Z,980.66
2018-07-01T00:06:05.737Z,980.72
2018-07-01T00:07:05.480Z,980.69
2018-07-01T00:08:05.904Z,980.63
2018-07-01T00:09:06.128Z,980.69
2018-07-01T00:10:06.001Z,980.63
2018-07-01T00:11:11.860Z,980.58
2018-07-01T00:12:10.065Z,980.66
2018-07-01T00:13:06.517Z,980.72
2018-07-01T00:14:05.301Z,980.64
2018-07-01T00:15:05.632Z,980.64
2018-07-01T00:16:05.859Z,980.64
2018-07-01T00:17:05.676Z,980.49
2018-07-01T00:18:05.707Z,980.64
2018-07-01T00:19:06.014Z,980.55
2018-07-01T00:20:06.064Z,980.61
2018-07-01T00:21:10.965Z,980.50
2018-07-01T00:22:05.448Z,980.58
2018-07-01T00:23:05.887Z,980.58
2018-07-01T00:24:05.783Z,980.64
2018-07-01T00:25:05.408Z,980.58
2018-07-01T00:26:05.079Z,980.50
2018-07-01T00:27:05.961Z,980.56
2018-07-01T00:28:10.373Z,980.58
2018-07-01T00:29:05.149Z,980.56
2018-07-01T00:30:05.063Z,980.47
2018-07-01T00:31:06.182Z,980.44
2018-07-01T00:32:05.990Z,980.33
2018-07-01T00:33:05.741Z,980.41
2018-07-01T00:34:05.391Z,980.36
2018-07-01T00:35:05.135Z,980.39
2018-07-01T00:36:05.122Z,980.47
2018-07-01T00:37:05.780Z,980.47
2018-07-01T00:38:05.702Z,980.59
2018-07-01T00:39:05.537Z,980.39
2018-07-01T00:40:05.682Z,980.22
2018-07-01T00:41:05.584Z,980.53
2018-07-01T00:42:05.451Z,980.48
2018-07-01T00:43:05.368Z,980.48
2018-07-01T00:44:05.162Z,980.54
2018-07-01T00:45:05.114Z,980.48
2018-07-01T00:46:05.009Z,980.57
2018-07-01T00:47:05.909Z,980.40
2018-07-01T00:48:06.011Z,980.54
2018-07-01T00:49:06.013Z,980.46
2018-07-01T00:50:05.542Z,980.60
2018-07-01T00:51:05.232Z,980.51
2018-07-01T00:52:05.876Z,980.51
2018-07-01T00:53:06.851Z,980.60
2018-07-01T00:54:05.259Z,980.49
2018-07-01T00:55:05.901Z,980.46
2018-07-01T00:56:05.492Z,980.49
2018-07-01T00:57:05.566Z,980.55
2018-07-01T00:58:05.119Z,980.43
2018-07-01T00:59:05.113Z,980.60
2018-07-01T01:00:05.524Z,980.43
2018-07-01T01:01:05.745Z,980.55
2018-07-01T01:02:05.589Z,980.66
2018-07-01T01:03:05.235Z,980.60
2018-07-01T01:04:05.228Z,980.57
2018-07-01T01:05:05.935Z,980.55
2018-07-01T01:06:05.472Z,980.55
2018-07-01T01:07:05.150Z,980.63
2018-07-01T01:08:05.646Z,980.58
2018-07-01T01:09:05.415Z,980.64
2018-07-01T01:10:05.283Z,980.67
2018-07-01T01:11:05.455Z,980.55
2018-07-01T01:12:05.889Z,980.55
2018-07-01T01:13:05.913Z,980.58
2018-07-01T01:14:05.223Z,980.52
2018-07-01T01:15:05.157Z,980.55
2018-07-01T01:16:05.244Z,980.52
2018-07-01T01:17:06.335Z,980.67
2018-07-01T01:18:05.273Z,980.47
2018-07-01T01:19:06.193Z,980.47
2018-07-01T01:20:05.437Z,980.53
2018-07-01T01:21:06.065Z,980.58
2018-07-01T01:22:06.001Z,980.58
2018-07-01T01:23:05.705Z,980.44
2018-07-01T01:24:05.837Z,980.53
2018-07-01T01:25:05.308Z,980.61
2018-07-01T01:26:05.749Z,980.39
2018-07-01T01:27:05.993Z,980.50
2018-07-01T01:28:05.883Z,980.53
2018-07-01T01:29:05.382Z,980.39
2018-07-01T01:30:05.146Z,980.45
2018-07-01T01:31:05.005Z,980.42
2018-07-01T01:32:05.291Z,980.45
2018-07-01T01:33:05.288Z,980.36
2018-07-01T01:34:06.165Z,980.33
2018-07-01T01:35:05.352Z,980.51
2018-07-01T01:36:05.324Z,980.56
2018-07-01T01:37:05.356Z,980.56
2018-07-01T01:38:05.968Z,980.59
2018-07-01T01:39:05.558Z,980.48
2018-07-01T01:40:05.584Z,980.45
2018-07-01T01:41:05.782Z,980.42
2018-07-01T01:42:05.921Z,980.54
2018-07-01T01:43:10.477Z,980.54
2018-07-01T01:44:05.899Z,980.54
2018-07-01T01:45:05.196Z,980.45
2018-07-01T01:46:05.674Z,980.45
2018-07-01T01:47:05.733Z,980.34
2018-07-01T01:48:05.779Z,980.37
2018-07-01T01:49:05.855Z,980.48
2018-07-01T01:50:05.808Z,980.37
2018-07-01T01:51:05.023Z,980.34
2018-07-01T01:52:05.201Z,980.51
2018-07-01T01:53:05.989Z,980.40
2018-07-01T01:54:10.115Z,980.54
2018-07-01T01:55:05.502Z,980.40
2018-07-01T01:56:05.651Z,980.46
2018-07-01T01:57:05.830Z,980.46
2018-07-01T01:58:06.041Z,980.43
2018-07-01T01:59:05.783Z,980.40
2018-07-01T02:00:05.219Z,980.55
2018-07-01T02:01:05.470Z,980.60
2018-07-01T02:02:04.999Z,980.63
2018-07-01T02:03:05.060Z,980.52
2018-07-01T02:04:05.583Z,980.46
2018-07-01T02:05:05.560Z,980.63
2018-07-01T02:06:05.541Z,980.55
2018-07-01T02:07:05.198Z,980.72
2018-07-01T02:08:05.955Z,980.64
2018-07-01T02:09:05.878Z,980.58
2018-07-01T02:10:06.116Z,980.52
2018-07-01T02:11:05.794Z,980.55
2018-07-01T02:12:05.353Z,980.52
2018-07-01T02:13:05.422Z,980.41
2018-07-01T02:14:05.242Z,980.58
2018-07-01T02:15:05.524Z,980.55
2018-07-01T02:16:05.623Z,980.67
2018-07-01T02:17:05.646Z,980.53
2018-07-01T02:18:10.684Z,980.47
2018-07-01T02:19:05.372Z,980.30
2018-07-01T02:20:05.451Z,980.64
2018-07-01T02:21:10.195Z,980.50
2018-07-01T02:22:06.568Z,980.47
2018-07-01T02:23:05.563Z,980.47
2018-07-01T02:24:05.501Z,980.55
2018-07-01T02:25:06.076Z,980.44
2018-07-01T02:26:05.603Z,980.58
2018-07-01T02:27:05.226Z,980.50
2018-07-01T02:28:05.338Z,980.47
2018-07-01T02:29:05.168Z,980.47
2018-07-01T02:30:05.218Z,980.55
2018-07-01T02:31:05.318Z,980.49
2018-07-01T02:32:05.290Z,980.41
2018-07-01T02:33:05.759Z,980.44
2018-07-01T02:34:05.724Z,980.58
2018-07-01T02:35:05.538Z,980.55
2018-07-01T02:36:05.223Z,980.61
2018-07-01T02:37:05.891Z,980.49
2018-07-01T02:38:04.992Z,980.46
2018-07-01T02:39:10.793Z,980.46
2018-07-01T02:40:05.700Z,980.49
2018-07-01T02:41:05.651Z,980.61
2018-07-01T02:42:05.740Z,980.69
2018-07-01T02:43:05.810Z,980.61
2018-07-01T02:44:05.722Z,980.55
2018-07-01T02:45:05.883Z,980.58
2018-07-01T02:46:05.434Z,980.52
2018-07-01T02:47:05.331Z,980.66
2018-07-01T02:48:06.058Z,980.58
2018-07-01T02:49:05.709Z,980.49
2018-07-01T02:50:05.837Z,980.49
2018-07-01T02:51:05.738Z,980.61
2018-07-01T02:52:05.376Z,980.55
2018-07-01T02:53:05.752Z,980.58
2018-07-01T02:54:05.308Z,980.69
2018-07-01T02:55:05.249Z,980.49
2018-07-01T02:56:05.681Z,980.66
2018-07-01T02:57:06.086Z,980.78
2018-07-01T02:58:05.481Z,980.63
2018-07-01T02:59:05.195Z,980.63
2018-07-01T03:00:05.305Z,980.55
2018-07-01T03:01:05.446Z,980.66
2018-07-01T03:02:05.651Z,980.61
2018-07-01T03:03:06.045Z,980.61
2018-07-01T03:04:05.071Z,980.55
2018-07-01T03:05:05.045Z,980.75
2018-07-01T03:06:05.348Z,980.72
2018-07-01T03:07:05.214Z,980.44
2018-07-01T03:08:05.534Z,980.55
2018-07-01T03:09:05.745Z,980.52
2018-07-01T03:10:05.832Z,980.55
2018-07-01T03:11:05.155Z,980.66
2018-07-01T03:12:05.705Z,980.61
2018-07-01T03:13:06.026Z,980.58
2018-07-01T03:14:05.009Z,980.55
2018-07-01T03:15:04.975Z,980.44
2018-07-01T03:16:05.048Z,980.44
2018-07-01T03:17:05.062Z,980.44
2018-07-01T03:18:05.313Z,980.55
2018-07-01T03:19:04.985Z,980.49
2018-07-01T03:20:05.628Z,980.55
2018-07-01T03:21:05.984Z,980.63
2018-07-01T03:22:05.167Z,980.66
2018-07-01T03:23:09.165Z,980.58
2018-07-01T03:24:05.920Z,980.69
2018-07-01T03:25:05.584Z,980.75
2018-07-01T03:26:05.762Z,980.72
2018-07-01T03:27:05.513Z,980.66
2018-07-01T03:28:05.847Z,980.72
2018-07-01T03:29:06.070Z,980.49
2018-07-01T03:30:06.053Z,980.63
2018-07-01T03:31:05.080Z,980.55
2018-07-01T03:32:05.581Z,980.57
2018-07-01T03:33:05.149Z,980.57
2018-07-01T03:34:06.101Z,980.55
2018-07-01T03:35:06.058Z,980.69
2018-07-01T03:36:05.749Z,980.66
2018-07-01T03:37:05.906Z,980.55
2018-07-01T03:38:05.379Z,980.66
2018-07-01T03:39:05.952Z,980.69
2018-07-01T03:40:06.015Z,980.72
2018-07-01T03:41:05.565Z,980.69
2018-07-01T03:42:10.500Z,980.75
2018-07-01T03:43:05.618Z,980.66
2018-07-01T03:44:05.379Z,980.60
2018-07-01T03:45:05.275Z,980.77
2018-07-01T03:46:05.913Z,980.70
2018-07-01T03:47:05.520Z,980.70
2018-07-01T03:48:05.624Z,980.81
2018-07-01T03:49:05.040Z,980.78
2018-07-01T03:50:05.944Z,980.63
2018-07-01T03:51:05.018Z,980.68
2018-07-01T03:52:05.236Z,980.79
2018-07-01T03:53:05.181Z,980.70
2018-07-01T03:54:10.137Z,980.67
2018-07-01T03:55:05.578Z,980.75
2018-07-01T03:56:05.620Z,980.95
2018-07-01T03:57:05.757Z,980.85
2018-07-01T03:58:05.965Z,980.88
2018-07-01T03:59:05.149Z,980.64
2018-07-01T04:00:05.855Z,980.81
2018-07-01T04:01:05.969Z,980.83
2018-07-01T04:02:05.493Z,980.85
2018-07-01T04:03:05.457Z,980.79
2018-07-01T04:04:06.340Z,980.81
2018-07-01T04:05:05.648Z,980.75
2018-07-01T04:06:05.694Z,980.80
2018-07-01T04:07:05.679Z,980.88
2018-07-01T04:08:06.039Z,980.90
2018-07-01T04:09:06.074Z,980.81
2018-07-01T04:10:04.993Z,980.92
2018-07-01T04:11:05.107Z,980.92
2018-07-01T04:12:10.203Z,980.83
2018-07-01T04:13:05.414Z,980.85
2018-07-01T04:14:05.634Z,980.99
2018-07-01T04:15:05.610Z,980.89
2018-07-01T04:16:05.374Z,981.01
2018-07-01T04:17:05.597Z,980.94
2018-07-01T04:18:05.539Z,980.97
2018-07-01T04:19:05.281Z,981.11
2018-07-01T04:20:05.249Z,981.01
2018-07-01T04:21:10.772Z,981.13
2018-07-01T04:22:05.146Z,980.98
2018-07-01T04:23:05.796Z,980.97
2018-07-01T04:24:05.468Z,980.91
2018-07-01T04:25:05.762Z,981.08
2018-07-01T04:27:45.354Z,980.98
2018-07-01T04:29:32.511Z,980.92
2018-07-01T04:29:32.560Z,980.92
2018-07-01T04:30:05.721Z,981.03
2018-07-01T04:31:05.676Z,980.94
2018-07-01T04:32:05.383Z,981.05
2018-07-01T04:33:06.828Z,981.10
2018-07-01T04:34:05.853Z,981.12
2018-07-01T04:35:05.094Z,981.09
2018-07-01T04:36:05.798Z,981.05
2018-07-01T04:37:05.766Z,981.02
2018-07-01T04:38:10.899Z,981.04
2018-07-01T04:39:05.693Z,981.06
2018-07-01T04:40:05.295Z,981.06
2018-07-01T04:41:05.420Z,981.14
2018-07-01T04:42:05.894Z,981.25
2018-07-01T04:43:05.069Z,981.11
2018-07-01T04:44:05.233Z,981.13
2018-07-01T04:45:05.032Z,981.13
2018-07-01T04:46:05.781Z,981.18
2018-07-01T04:47:05.740Z,981.21
2018-07-01T04:48:05.262Z,981.21
2018-07-01T04:49:06.126Z,981.06
2018-07-01T04:50:05.064Z,981.11
2018-07-01T04:51:05.525Z,981.17
2018-07-01T04:52:05.009Z,981.20
2018-07-01T04:53:05.081Z,981.20
2018-07-01T04:54:04.941Z,981.14
2018-07-01T04:55:05.739Z,981.16
2018-07-01T04:56:05.662Z,981.16
2018-07-01T04:57:05.820Z,981.25
2018-07-01T04:58:05.119Z,981.08
2018-07-01T04:59:05.204Z,981.23
2018-07-01T05:00:05.741Z,981.17
2018-07-01T05:01:05.385Z,981.11
2018-07-01T05:02:05.539Z,981.05
2018-07-01T05:03:05.026Z,981.11
2018-07-01T05:04:05.723Z,981.05
2018-07-01T05:05:05.631Z,981.19
2018-07-01T05:06:06.056Z,981.17
2018-07-01T05:07:05.603Z,981.23
2018-07-01T05:08:05.694Z,981.11
2018-07-01T05:09:05.385Z,981.23
2018-07-01T05:10:05.477Z,981.32
2018-07-01T05:11:05.732Z,981.20
2018-07-01T05:12:05.831Z,981.11
2018-07-01T05:13:10.666Z,981.23
2018-07-01T05:14:06.546Z,981.23
2018-07-01T05:15:05.324Z,981.23
2018-07-01T05:16:05.828Z,981.11
2018-07-01T05:17:05.762Z,981.22
2018-07-01T05:18:10.208Z,981.25
2018-07-01T05:19:05.132Z,981.25
2018-07-01T05:20:05.538Z,981.14
2018-07-01T05:21:05.373Z,981.25
2018-07-01T05:22:05.054Z,981.25
2018-07-01T05:23:04.975Z,981.22
2018-07-01T05:24:05.076Z,981.22
2018-07-01T05:25:05.330Z,981.25
2018-07-01T05:26:05.546Z,981.16
2018-07-01T05:27:05.198Z,981.16
2018-07-01T05:28:05.310Z,981.22
2018-07-01T05:29:04.919Z,981.22
2018-07-01T05:30:05.225Z,981.19
2018-07-01T05:31:05.811Z,981.25
2018-07-01T05:32:05.708Z,981.22
2018-07-01T05:33:05.862Z,981.19
2018-07-01T05:34:05.307Z,981.28
2018-07-01T05:35:05.344Z,981.19
2018-07-01T05:36:05.424Z,981.25
2018-07-01T05:37:04.959Z,981.25
2018-07-01T05:38:05.526Z,981.24
2018-07-01T05:39:05.377Z,981.30
2018-07-01T05:40:05.938Z,981.13
2018-07-01T05:41:05.812Z,981.18
2018-07-01T05:42:05.290Z,981.16
2018-07-01T05:43:09.936Z,981.16
2018-07-01T05:44:05.641Z,981.27
2018-07-01T05:45:05.268Z,981.12
2018-07-01T05:46:06.388Z,981.12
2018-07-01T05:47:05.742Z,981.21
2018-07-01T05:48:05.736Z,981.35
2018-07-01T05:49:04.791Z,981.23
2018-07-01T05:50:04.993Z,981.35
2018-07-01T05:51:05.726Z,981.32
2018-07-01T05:52:04.963Z,981.14
2018-07-01T05:53:05.734Z,981.31
2018-07-01T05:54:05.678Z,981.17
2018-07-01T05:55:05.396Z,981.28
2018-07-01T05:56:06.021Z,981.11
2018-07-01T05:57:05.653Z,981.25
2018-07-01T05:58:05.722Z,981.28
2018-07-01T05:59:05.826Z,981.36
2018-07-01T06:00:05.610Z,981.39
2018-07-01T06:01:05.999Z,981.42
2018-07-01T06:02:05.597Z,981.39
2018-07-01T06:03:05.303Z,981.30
2018-07-01T06:04:05.519Z,981.30
2018-07-01T06:05:10.335Z,981.21
2018-07-01T06:06:04.856Z,981.33
2018-07-01T06:07:04.923Z,981.33
2018-07-01T06:08:05.486Z,981.42
2018-07-01T06:09:05.359Z,981.36
2018-07-01T06:10:05.177Z,981.41
2018-07-01T06:11:05.443Z,981.27
2018-07-01T06:12:05.513Z,981.39
2018-07-01T06:13:05.616Z,981.39
2018-07-01T06:14:05.629Z,981.36
2018-07-01T06:15:05.716Z,981.39
2018-07-01T06:16:05.602Z,981.36
2018-07-01T06:17:05.136Z,981.41
2018-07-01T06:18:10.744Z,981.27
2018-07-01T06:19:05.409Z,981.38
2018-07-01T06:20:06.205Z,981.38
2018-07-01T06:21:06.321Z,981.43
2018-07-01T06:22:05.309Z,981.38
2018-07-01T06:23:05.285Z,981.35
2018-07-01T06:24:05.465Z,981.52
2018-07-01T06:25:05.895Z,981.40
2018-07-01T06:26:05.102Z,981.40
2018-07-01T06:27:05.842Z,981.49
2018-07-01T06:28:10.065Z,981.38
2018-07-01T06:29:06.156Z,981.35
2018-07-01T06:30:05.042Z,981.55
2018-07-01T06:31:05.583Z,981.38
2018-07-01T06:32:05.745Z,981.43
2018-07-01T06:33:05.961Z,981.43
2018-07-01T06:34:10.472Z,981.43
2018-07-01T06:35:05.193Z,981.55
2018-07-01T06:36:05.428Z,981.40
2018-07-01T06:37:05.176Z,981.55
2018-07-01T06:38:05.153Z,981.52
2018-07-01T06:39:05.424Z,981.46
2018-07-01T06:40:05.394Z,981.55
2018-07-01T06:41:05.265Z,981.43
2018-07-01T06:42:05.221Z,981.49
2018-07-01T06:43:05.612Z,981.52
2018-07-01T06:44:05.728Z,981.49
2018-07-01T06:45:06.125Z,981.62
2018-07-01T06:46:05.004Z,981.46
2018-07-01T06:47:10.888Z,981.46
2018-07-01T06:48:05.610Z,981.49
2018-07-01T06:49:05.599Z,981.46
2018-07-01T06:50:05.523Z,981.44
2018-07-01T06:51:05.472Z,981.52
2018-07-01T06:52:05.669Z,981.55
2018-07-01T06:53:05.584Z,981.55
2018-07-01T06:54:05.786Z,981.47
2018-07-01T06:55:05.147Z,981.47
2018-07-01T06:56:05.882Z,981.49
2018-07-01T06:57:04.909Z,981.41
2018-07-01T06:58:05.266Z,981.50
2018-07-01T06:59:05.405Z,981.50
2018-07-01T07:00:05.314Z,981.52
2018-07-01T07:01:05.829Z,981.52
2018-07-01T07:02:05.679Z,981.49
2018-07-01T07:03:05.308Z,981.49
2018-07-01T07:04:05.123Z,981.55
2018-07-01T07:05:04.952Z,981.47
2018-07-01T07:06:05.044Z,981.55
2018-07-01T07:07:05.488Z,981.49
2018-07-01T07:08:05.047Z,981.50
2018-07-01T07:09:05.510Z,981.57
2018-07-01T07:10:05.672Z,981.60
2018-07-01T07:11:05.664Z,981.63
2018-07-01T07:12:05.888Z,981.43
2018-07-01T07:13:05.880Z,981.52
2018-07-01T07:14:05.957Z,981.49
2018-07-01T07:15:05.392Z,981.49
2018-07-01T07:16:05.201Z,981.60
2018-07-01T07:17:05.204Z,981.49
2018-07-01T07:18:05.322Z,981.60
2018-07-01T07:19:05.900Z,981.40
2018-07-01T07:20:05.571Z,981.49
2018-07-01T07:21:05.826Z,981.46
2018-07-01T07:22:05.820Z,981.49
2018-07-01T07:23:04.897Z,981.57
2018-07-01T07:24:05.289Z,981.55
2018-07-01T07:25:05.367Z,981.46
2018-07-01T07:26:05.579Z,981.46
2018-07-01T07:27:05.704Z,981.55
2018-07-01T07:28:05.687Z,981.52
2018-07-01T07:29:05.920Z,981.65
2018-07-01T07:30:05.143Z,981.62
2018-07-01T07:31:05.038Z,981.52
2018-07-01T07:32:05.348Z,981.57
2018-07-01T07:33:05.074Z,981.52
2018-07-01T07:34:05.110Z,981.52
2018-07-01T07:35:10.555Z,981.57
2018-07-01T07:36:05.390Z,981.49
2018-07-01T07:37:05.016Z,981.43
2018-07-01T07:38:05.601Z,981.52
2018-07-01T07:39:05.870Z,981.55
2018-07-01T07:40:05.909Z,981.49
2018-07-01T07:41:06.034Z,981.60
2018-07-01T07:42:06.243Z,981.60
2018-07-01T07:43:05.361Z,981.46
2018-07-01T07:44:05.825Z,981.52
2018-07-01T07:45:05.596Z,981.52
2018-07-01T07:46:05.920Z,981.55
2018-07-01T07:47:05.038Z,981.31
2018-07-01T07:48:05.014Z,981.49
2018-07-01T07:49:05.662Z,981.55
2018-07-01T07:50:05.635Z,981.46
2018-07-01T07:51:05.182Z,981.51
2018-07-01T07:52:05.271Z,981.51
2018-07-01T07:53:05.479Z,981.39
2018-07-01T07:54:05.284Z,981.39
2018-07-01T07:55:05.575Z,981.45
2018-07-01T07:56:11.436Z,981.50
2018-07-01T07:57:05.345Z,981.35
2018-07-01T07:58:05.966Z,981.50
2018-07-01T07:59:05.408Z,981.50
2018-07-01T08:00:05.284Z,981.44
2018-07-01T08:01:05.362Z,981.47
2018-07-01T08:02:05.172Z,981.56
2018-07-01T08:03:05.182Z,981.47
2018-07-01T08:04:05.277Z,981.47
2018-07-01T08:05:06.355Z,981.41
2018-07-01T08:06:05.687Z,981.41
2018-07-01T08:07:04.991Z,981.33
2018-07-01T08:08:05.116Z,981.38
2018-07-01T08:09:05.491Z,981.36
2018-07-01T08:10:05.173Z,981.42
2018-07-01T08:11:05.345Z,981.42
2018-07-01T08:12:05.398Z,981.24
2018-07-01T08:13:05.176Z,981.33
2018-07-01T08:14:05.690Z,981.42
2018-07-01T08:15:05.466Z,981.53
2018-07-01T08:16:05.062Z,981.48
2018-07-01T08:17:04.928Z,981.36
2018-07-01T08:18:05.732Z,981.53
2018-07-01T08:19:05.118Z,981.39
2018-07-01T08:20:05.497Z,981.47
2018-07-01T08:21:05.675Z,981.53
2018-07-01T08:22:05.762Z,981.30
2018-07-01T08:23:05.458Z,981.39
2018-07-01T08:24:05.538Z,981.42
2018-07-01T08:25:05.788Z,981.42
2018-07-01T08:26:06.191Z,981.33
2018-07-01T08:27:05.216Z,981.27
2018-07-01T08:28:05.309Z,981.27
2018-07-01T08:29:05.983Z,981.22
2018-07-01T08:30:05.164Z,981.27
2018-07-01T08:31:06.453Z,981.36
2018-07-01T08:32:05.155Z,981.39
2018-07-01T08:33:05.154Z,981.39
2018-07-01T08:34:05.672Z,981.34
2018-07-01T08:35:05.882Z,981.31
2018-07-01T08:36:05.371Z,981.19
2018-07-01T08:37:10.874Z,981.31
2018-07-01T08:38:05.657Z,981.28
2018-07-01T08:39:05.136Z,981.19
2018-07-01T08:40:04.940Z,981.22
2018-07-01T08:41:05.566Z,981.34
2018-07-01T08:42:05.073Z,981.28
2018-07-01T08:43:05.252Z,981.23
2018-07-01T08:44:05.620Z,981.26
2018-07-01T08:45:05.109Z,981.38
2018-07-01T08:46:05.020Z,981.29
2018-07-01T08:47:06.131Z,981.27
2018-07-01T08:48:05.073Z,981.27
2018-07-01T08:49:05.279Z,981.27
2018-07-01T08:50:04.869Z,981.36
2018-07-01T08:51:05.469Z,981.19
2018-07-01T08:52:05.802Z,981.28
2018-07-01T08:53:05.026Z,981.13
2018-07-01T08:54:05.745Z,981.33
2018-07-01T08:55:10.442Z,981.22
2018-07-01T08:56:05.154Z,981.39
2018-07-01T08:57:06.506Z,981.42
2018-07-01T08:58:05.576Z,981.36
2018-07-01T08:59:05.567Z,981.30
2018-07-01T09:00:05.729Z,981.24
2018-07-01T09:01:05.595Z,981.41
2018-07-01T09:02:09.896Z,981.38
2018-07-01T09:03:05.702Z,981.35
2018-07-01T09:04:05.634Z,981.38
2018-07-01T09:05:05.745Z,981.44
2018-07-01T09:06:05.350Z,981.46
2018-07-01T09:07:05.800Z,981.55
2018-07-01T09:08:05.244Z,981.49
2018-07-01T09:09:05.609Z,981.47
2018-07-01T09:10:05.138Z,981.47
2018-07-01T09:11:05.160Z,981.50
2018-07-01T09:12:05.859Z,981.41
2018-07-01T09:13:05.785Z,981.38
2018-07-01T09:14:05.402Z,981.32
2018-07-01T09:15:05.257Z,981.38
2018-07-01T09:16:05.643Z,981.43
2018-07-01T09:17:05.425Z,981.37
2018-07-01T09:18:05.875Z,981.20
2018-07-01T09:19:05.850Z,981.34
2018-07-01T09:20:05.972Z,981.25
2018-07-01T09:21:04.993Z,981.43
2018-07-01T09:22:05.005Z,981.37
2018-07-01T09:23:05.073Z,981.54
2018-07-01T09:24:06.100Z,981.34
2018-07-01T09:25:05.098Z,981.43
2018-07-01T09:26:05.080Z,981.40
2018-07-01T09:27:05.421Z,981.46
2018-07-01T09:28:05.478Z,981.44
2018-07-01T09:29:05.509Z,981.23
2018-07-01T09:30:05.185Z,981.32
2018-07-01T09:31:04.930Z,981.44
2018-07-01T09:32:05.118Z,981.38
2018-07-01T09:33:04.988Z,981.47
2018-07-01T09:34:05.279Z,981.41
2018-07-01T09:35:05.708Z,981.44
2018-07-01T09:36:05.132Z,981.47
2018-07-01T09:37:05.516Z,981.29
2018-07-01T09:38:05.723Z,981.52
2018-07-01T09:39:05.734Z,981.43
2018-07-01T09:40:05.170Z,981.35
2018-07-01T09:41:08.047Z,981.35
2018-07-01T09:42:06.583Z,981.26
2018-07-01T09:43:05.181Z,981.31
2018-07-01T09:44:05.532Z,981.37
2018-07-01T09:45:05.094Z,981.57
2018-07-01T09:46:05.515Z,981.46
2018-07-01T09:47:05.490Z,981.49
2018-07-01T09:48:05.101Z,981.40
2018-07-01T09:49:05.704Z,981.49
2018-07-01T09:50:05.226Z,981.43
2018-07-01T09:51:05.196Z,981.34
2018-07-01T09:52:05.488Z,981.51
2018-07-01T09:53:05.220Z,981.46
2018-07-01T09:54:05.399Z,981.46
2018-07-01T09:55:05.352Z,981.54
2018-07-01T09:56:05.156Z,981.54
2018-07-01T09:57:05.828Z,981.49
2018-07-01T09:58:05.782Z,981.49
2018-07-01T09:59:05.335Z,981.40
2018-07-01T10:00:05.250Z,981.48
2018-07-01T10:01:05.498Z,981.31
2018-07-01T10:02:05.529Z,981.37
2018-07-01T10:03:05.273Z,981.34
2018-07-01T10:04:05.760Z,981.36
2018-07-01T10:05:05.083Z,981.51
2018-07-01T10:06:05.551Z,981.48
2018-07-01T10:07:05.489Z,981.48
2018-07-01T10:08:05.774Z,981.48
2018-07-01T10:09:05.083Z,981.39
2018-07-01T10:10:04.856Z,981.36
2018-07-01T10:11:05.528Z,981.39
2018-07-01T10:12:05.782Z,981.39
2018-07-01T10:13:05.543Z,981.36
2018-07-01T10:14:05.587Z,981.42
2018-07-01T10:15:05.108Z,981.48
2018-07-01T10:16:05.512Z,981.53
2018-07-01T10:17:05.966Z,981.44
2018-07-01T10:18:05.565Z,981.39
2018-07-01T10:19:05.089Z,981.36
2018-07-01T10:20:05.767Z,981.39
2018-07-01T10:21:05.498Z,981.42
2018-07-01T10:22:05.612Z,981.39
2018-07-01T10:23:05.670Z,981.38
2018-07-01T10:24:05.337Z,981.41
2018-07-01T10:25:05.123Z,981.50
2018-07-01T10:26:10.967Z,981.29
2018-07-01T10:27:06.121Z,981.38
2018-07-01T10:28:05.502Z,981.35
2018-07-01T10:29:05.680Z,981.33
2018-07-01T10:30:05.481Z,981.30
2018-07-01T10:31:05.502Z,981.44
2018-07-01T10:32:05.301Z,981.27
2018-07-01T10:33:05.488Z,981.36
2018-07-01T10:34:05.657Z,981.38
2018-07-01T10:35:05.629Z,981.44
2018-07-01T10:36:05.314Z,981.50
2018-07-01T10:37:04.943Z,981.38
2018-07-01T10:38:05.227Z,981.29
2018-07-01T10:39:05.558Z,981.44
2018-07-01T10:40:05.662Z,981.41
2018-07-01T10:41:05.244Z,981.43
2018-07-01T10:42:05.794Z,981.41
2018-07-01T10:43:05.748Z,981.38
2018-07-01T10:44:10.688Z,981.35
2018-07-01T10:45:04.967Z,981.41
2018-07-01T10:46:05.546Z,981.32
2018-07-01T10:47:05.362Z,981.44
2018-07-01T10:48:05.409Z,981.50
2018-07-01T10:49:05.381Z,981.66
2018-07-01T10:50:05.182Z,981.41
2018-07-01T10:51:05.595Z,981.44
2018-07-01T10:52:05.124Z,981.36
2018-07-01T10:53:04.824Z,981.44
2018-07-01T10:54:05.923Z,981.39
2018-07-01T10:55:05.053Z,981.48
2018-07-01T10:56:05.079Z,981.51
2018-07-01T10:57:05.544Z,981.51
2018-07-01T10:58:10.204Z,981.39
2018-07-01T10:59:04.931Z,981.45
2018-07-01T11:00:05.609Z,981.50
2018-07-01T11:01:05.999Z,981.33
2018-07-01T11:02:05.840Z,981.33
2018-07-01T11:03:05.210Z,981.33
2018-07-01T11:04:05.020Z,981.44
2018-07-01T11:05:05.353Z,981.50
2018-07-01T11:06:05.325Z,981.24
2018-07-01T11:07:10.707Z,981.30
2018-07-01T11:08:05.564Z,981.35
2018-07-01T11:09:05.539Z,981.30
2018-07-01T11:10:05.792Z,981.26
2018-07-01T11:11:05.781Z,981.12
2018-07-01T11:12:06.003Z,981.29
2018-07-01T11:13:05.203Z,981.23
2018-07-01T11:14:05.479Z,981.17
2018-07-01T11:15:05.049Z,981.26
2018-07-01T11:16:05.492Z,981.29
2018-07-01T11:17:05.869Z,981.29
2018-07-01T11:18:05.222Z,981.20
2018-07-01T11:19:05.534Z,981.17
2018-07-01T11:20:04.917Z,981.20
2018-07-01T11:21:05.244Z,981.26
2018-07-01T11:22:05.295Z,981.35
2018-07-01T11:23:05.359Z,981.29
2018-07-01T11:24:05.137Z,981.38
2018-07-01T11:25:05.730Z,981.23
2018-07-01T11:26:10.104Z,981.35
2018-07-01T11:27:07.112Z,981.29
2018-07-01T11:28:05.524Z,981.17
2018-07-01T11:29:05.769Z,981.11
2018-07-01T11:30:05.158Z,981.14
2018-07-01T11:31:05.266Z,981.20
2018-07-01T11:32:05.489Z,981.14
2018-07-01T11:33:05.158Z,981.17
2018-07-01T11:34:10.364Z,981.11
2018-07-01T11:35:05.568Z,981.05
2018-07-01T11:36:05.566Z,981.11
2018-07-01T11:37:05.459Z,981.11
2018-07-01T11:38:05.772Z,981.23
2018-07-01T11:39:04.933Z,981.14
2018-07-01T11:40:05.482Z,981.19
2018-07-01T11:41:05.267Z,981.22
2018-07-01T11:42:05.195Z,981.13
2018-07-01T11:43:05.137Z,981.19
2018-07-01T11:44:06.919Z,981.08
2018-07-01T11:45:05.725Z,981.28
2018-07-01T11:46:05.139Z,981.11
2018-07-01T11:47:05.875Z,981.25
2018-07-01T11:48:05.029Z,981.25
2018-07-01T11:49:05.680Z,981.17
2018-07-01T11:50:04.942Z,981.17
2018-07-01T11:51:05.686Z,981.23
2018-07-01T11:52:05.370Z,981.32
2018-07-01T11:53:05.235Z,981.20
2018-07-01T11:54:05.409Z,981.23
2018-07-01T11:55:05.408Z,981.29
2018-07-01T11:56:05.747Z,981.29
2018-07-01T11:57:05.320Z,981.23
2018-07-01T11:58:05.473Z,981.32
2018-07-01T11:59:04.868Z,981.09
2018-07-01T12:00:05.517Z,981.17
2018-07-01T12:01:05.580Z,981.38
2018-07-01T12:02:05.397Z,981.23
2018-07-01T12:03:05.687Z,981.23
2018-07-01T12:04:05.754Z,981.15
2018-07-01T12:05:17.456Z,981.12
2018-07-01T12:06:05.949Z,981.12
2018-07-01T12:07:05.095Z,981.15
2018-07-01T12:08:05.827Z,981.17
2018-07-01T12:09:04.949Z,981.23
2018-07-01T12:10:05.080Z,981.17
2018-07-01T12:11:05.371Z,981.05
2018-07-01T12:12:05.504Z,981.28
2018-07-01T12:13:05.449Z,981.20
2018-07-01T12:14:05.790Z,981.14
2018-07-01T12:15:05.746Z,981.28
2018-07-01T12:16:06.114Z,981.05
2018-07-01T12:17:05.123Z,981.08
2018-07-01T12:18:05.544Z,981.08
2018-07-01T12:19:05.610Z,981.17
2018-07-01T12:20:05.368Z,981.11
2018-07-01T12:21:04.925Z,980.94
2018-07-01T12:22:05.355Z,981.02
2018-07-01T12:23:05.687Z,981.17
2018-07-01T12:24:05.827Z,981.05
2018-07-01T12:25:05.068Z,981.11
2018-07-01T12:26:05.664Z,981.05
2018-07-01T12:27:06.146Z,980.90
2018-07-01T12:28:05.135Z,980.99
2018-07-01T12:29:05.650Z,980.96